Map

Track Data

SID SEASON NUMBER BASIN SUBBASIN NAME ISO_TIME NATURE LAT LON WMO_WIND WMO_PRES WMO_AGENCY TRACK_TYPE DIST2LAND LANDFALL IFLAG USA_AGENCY USA_ATCF_ID USA_LAT USA_LON USA_RECORD USA_STATUS USA_WIND USA_PRES USA_SSHS USA_R34_NE USA_R34_SE USA_R34_SW USA_R34_NW USA_R50_NE USA_R50_SE USA_R50_SW USA_R50_NW USA_R64_NE USA_R64_SE USA_R64_SW USA_R64_NW USA_POCI USA_ROCI USA_RMW USA_EYE TOKYO_LAT TOKYO_LON TOKYO_GRADE TOKYO_WIND TOKYO_PRES TOKYO_R50_DIR TOKYO_R50_LONG TOKYO_R50_SHORT TOKYO_R30_DIR TOKYO_R30_LONG TOKYO_R30_SHORT TOKYO_LAND CMA_LAT CMA_LON CMA_CAT CMA_WIND CMA_PRES HKO_LAT HKO_LON HKO_CAT HKO_WIND HKO_PRES NEWDELHI_LAT NEWDELHI_LON NEWDELHI_GRADE NEWDELHI_WIND NEWDELHI_PRES NEWDELHI_CI NEWDELHI_DP NEWDELHI_POCI REUNION_LAT REUNION_LON REUNION_TYPE REUNION_WIND REUNION_PRES REUNION_TNUM REUNION_CI REUNION_RMW REUNION_R34_NE REUNION_R34_SE REUNION_R34_SW REUNION_R34_NW REUNION_R50_NE REUNION_R50_SE REUNION_R50_SW REUNION_R50_NW REUNION_R64_NE REUNION_R64_SE REUNION_R64_SW REUNION_R64_NW BOM_LAT BOM_LON BOM_TYPE BOM_WIND BOM_PRES BOM_TNUM BOM_CI BOM_RMW BOM_R34_NE BOM_R34_SE BOM_R34_SW BOM_R34_NW BOM_R50_NE BOM_R50_SE BOM_R50_SW BOM_R50_NW BOM_R64_NE BOM_R64_SE BOM_R64_SW BOM_R64_NW BOM_ROCI BOM_POCI BOM_EYE BOM_POS_METHOD BOM_PRES_METHOD NADI_LAT NADI_LON NADI_CAT NADI_WIND NADI_PRES WELLINGTON_LAT WELLINGTON_LON WELLINGTON_WIND WELLINGTON_PRES DS824_LAT DS824_LON DS824_STAGE DS824_WIND DS824_PRES TD9636_LAT TD9636_LON TD9636_STAGE TD9636_WIND TD9636_PRES TD9635_LAT TD9635_LON TD9635_WIND TD9635_PRES TD9635_ROCI NEUMANN_LAT NEUMANN_LON NEUMANN_CLASS NEUMANN_WIND NEUMANN_PRES MLC_LAT MLC_LON MLC_CLASS MLC_WIND MLC_PRES USA_GUST BOM_GUST BOM_GUST_PER REUNION_GUST REUNION_GUST_PER USA_SEAHGT USA_SEARAD_NE USA_SEARAD_SE USA_SEARAD_SW USA_SEARAD_NW STORM_SPEED STORM_DIR
1989194S06095 1990 60 SI WA NOT_NAMED 1989-07-12 18:00:00 TS -6.40000 95.2000 main 667 667 O___________O_ jtwc_sh SH021990 -6.40000 95.2000 15 -1 -6.40000 95.2000 TC 15 8 200
1989194S06095 1990 60 SI WA NOT_NAMED 1989-07-12 21:00:00 TS -6.77251 95.0675 main 710 710 P___________P_ SH021990 -6.77251 95.0675 17 -1 -6.77251 95.0675 TC 17 9 200
1989194S06095 1990 60 SI WA NOT_NAMED 1989-07-13 00:00:00 TS -7.20000 94.9000 main 759 759 O___________O_ jtwc_sh SH021990 -7.20000 94.9000 20 -1 -7.20000 94.9000 TC 20 10 203
1989194S06095 1990 60 SI WA NOT_NAMED 1989-07-13 03:00:00 TS -7.70749 94.6725 main 817 817 P___________P_ SH021990 -7.70749 94.6725 22 -1 -7.70749 94.6725 TC 22 11 206
1989194S06095 1990 60 SI WA NOT_NAMED 1989-07-13 06:00:00 TS -8.20000 94.4000 main 882 882 O___________O_ jtwc_sh SH021990 -8.20000 94.4000 25 -1 -8.20000 94.4000 TC 25 10 213
1989194S06095 1990 60 SI WA NOT_NAMED 1989-07-13 09:00:00 TS -8.57247 94.1149 main 938 938 P___________P_ SH021990 -8.57247 94.1149 25 -1 -8.57247 94.1149 TC 25 9 220
1989194S06095 1990 60 SI WA NOT_NAMED 1989-07-13 12:00:00 TS -8.90000 93.8000 main 984 984 O___________O_ jtwc_sh SH021990 -8.90000 93.8000 25 -1 -8.90000 93.8000 TC 25 9 224
1989194S06095 1990 60 SI WA NOT_NAMED 1989-07-13 15:00:00 TS -9.24251 93.4500 main 1037 1037 P___________P_ SH021990 -9.24251 93.4500 25 -1 -9.24251 93.4500 TC 25 10 225
1989194S06095 1990 60 SI WA NOT_NAMED 1989-07-13 18:00:00 TS -9.60000 93.1000 main 1093 1093 O___________O_ jtwc_sh SH021990 -9.60000 93.1000 25 -1 -9.60000 93.1000 TC 25 10 222
1989194S06095 1990 60 SI WA NOT_NAMED 1989-07-13 21:00:00 TS -9.98499 92.7775 main 1149 1149 P___________P_ SH021990 -9.98499 92.7775 25 -1 -9.98499 92.7775 TC 25 10 216
1989194S06095 1990 60 SI WA NOT_NAMED 1989-07-14 00:00:00 TS -10.4000 92.5000 main 1204 1204 O___________O_ jtwc_sh SH021990 -10.4000 92.5000 25 -1 -10.4000 92.5000 TC 25 10 212
1989194S06095 1990 60 SI WA NOT_NAMED 1989-07-14 03:00:00 TS -10.8125 92.2550 main 1253 1253 P___________P_ SH021990 -10.8125 92.2550 25 -1 -10.8125 92.2550 TC 25 10 204
1989194S06095 1990 60 SI WA NOT_NAMED 1989-07-14 06:00:00 TS -11.3000 92.1000 main 1311 1311 O___________O_ jtwc_sh SH021990 -11.3000 92.1000 25 -1 -11.3000 92.1000 TC 25 12 191
1989194S06095 1990 60 SI WA NOT_NAMED 1989-07-14 09:00:00 TS -11.9649 92.0325 main 1382 1382 P___________P_ SH021990 -11.9649 92.0325 25 -1 -11.9649 92.0325 TC 25 13 179
1989194S06095 1990 60 SI WA NOT_NAMED 1989-07-14 12:00:00 TS -12.6000 92.1000 main 1432 1432 O___________O_ jtwc_sh SH021990 -12.6000 92.1000 25 -1 -12.6000 92.1000 TC 25 11 166
1989194S06095 1990 60 SI WA NOT_NAMED 1989-07-14 15:00:00 TS -12.9800 92.2976 main 1459 1459 P___________P_ SH021990 -12.9800 92.2976 25 -1 -12.9800 92.2976 TC 25 9 145
1989194S06095 1990 60 SI WA NOT_NAMED 1989-07-14 18:00:00 TS -13.3000 92.6000 main 1473 1473 O___________O_ jtwc_sh SH021990 -13.3000 92.6000 25 -1 -13.3000 92.6000 TC 25 10 141
1989194S06095 1990 60 SI WA NOT_NAMED 1989-07-14 21:00:00 TS -13.7274 92.9202 main 1497 1497 P___________P_ SH021990 -13.7274 92.9202 27 -1 -13.7274 92.9202 TC 27 11 143
1989194S06095 1990 60 SI WA NOT_NAMED 1989-07-15 00:00:00 TS -14.2000 93.3000 main 1510 1510 O___________O_ jtwc_sh SH021990 -14.2000 93.3000 30 -1 -14.2000 93.3000 TC 30 13 141
1989194S06095 1990 60 SI WA NOT_NAMED 1989-07-15 03:00:00 TS -14.6925 93.7351 main 1523 1516 P___________P_ SH021990 -14.6925 93.7351 32 -1 -14.6925 93.7351 TC 32 13 139
1989194S06095 1990 60 SI WA NOT_NAMED 1989-07-15 06:00:00 TS -15.2000 94.2000 main 1525 1517 O___________O_ jtwc_sh SH021990 -15.2000 94.2000 35 0 -15.2000 94.2000 TC 35 14 139
1989194S06095 1990 60 SI WA NOT_NAMED 1989-07-15 09:00:00 TS -15.7301 94.6798 main 1517 1515 P___________P_ SH021990 -15.7301 94.6798 35 0 -15.7301 94.6798 TC 35 13 139
1989194S06095 1990 60 SI WA NOT_NAMED 1989-07-15 12:00:00 TS -16.2000 95.1000 main 1522 1522 O___________O_ jtwc_sh SH021990 -16.2000 95.1000 35 0 -16.2000 95.1000 TC 35 11 139
1989194S06095 1990 60 SI WA NOT_NAMED 1989-07-15 15:00:00 TS -16.5449 95.4102 main 1522 1522 P___________P_ SH021990 -16.5449 95.4102 32 -1 -16.5449 95.4102 TC 32 8 141
1989194S06095 1990 60 SI WA NOT_NAMED 1989-07-15 18:00:00 TS -16.8000 95.6000 main 1531 1531 O___________O_ jtwc_sh SH021990 -16.8000 95.6000 30 -1 -16.8000 95.6000 TC 30 6 148
1989194S06095 1990 60 SI WA NOT_NAMED 1989-07-15 21:00:00 TS -17.0224 95.7176 main 1539 1539 P___________P_ SH021990 -17.0224 95.7176 30 -1 -17.0224 95.7176 TC 30 4 167
1989194S06095 1990 60 SI WA NOT_NAMED 1989-07-16 00:00:00 TS -17.2000 95.7000 main 1556 1556 O___________O_ jtwc_sh SH021990 -17.2000 95.7000 30 -1 -17.2000 95.7000 TC 30 4 204
1989194S06095 1990 60 SI WA NOT_NAMED 1989-07-16 03:00:00 TS -17.4176 95.5303 main 1587 1587 P___________P_ SH021990 -17.4176 95.5303 27 -1 -17.4176 95.5303 TC 27 5 232
1989194S06095 1990 60 SI WA NOT_NAMED 1989-07-16 06:00:00 TS -17.5000 95.3000 main 1609 1600 O___________O_ jtwc_sh SH021990 -17.5000 95.3000 25 -1 -17.5000 95.3000 TC 25 4 285
1989194S06095 1990 60 SI WA NOT_NAMED 1989-07-16 09:00:00 TS -17.3174 95.1499 main 1608 1591 P___________P_ SH021990 -17.3174 95.1499 25 -1 -17.3174 95.1499 TC 25 6 330
1989194S06095 1990 60 SI WA NOT_NAMED 1989-07-16 12:00:00 TS -17.0000 95.0000 main 1591 1583 O___________O_ jtwc_sh SH021990 -17.0000 95.0000 25 -1 -17.0000 95.0000 TC 25 7 332
1989194S06095 1990 60 SI WA NOT_NAMED 1989-07-16 15:00:00 TS -16.7000 94.8075 main 1583 1576 P___________P_ SH021990 -16.7000 94.8075 22 -1 -16.7000 94.8075 TC 22 7 327
1989194S06095 1990 60 SI WA NOT_NAMED 1989-07-16 18:00:00 TS -16.4000 94.6000 main 1577 1569 O___________O_ jtwc_sh SH021990 -16.4000 94.6000 20 -1 -16.4000 94.6000 TC 20 7 326
1989194S06095 1990 60 SI WA NOT_NAMED 1989-07-16 21:00:00 TS -16.1275 94.4076 main 1571 1571 P___________P_ SH021990 -16.1275 94.4076 20 -1 -16.1275 94.4076 TC 20 6 322
1989194S06095 1990 60 SI WA NOT_NAMED 1989-07-17 00:00:00 TS -15.9000 94.2000 main 1573 1573 O___________O_ jtwc_sh SH021990 -15.9000 94.2000 20 -1 -15.9000 94.2000 TC 20 6 312
1989194S06095 1990 60 SI WA NOT_NAMED 1989-07-17 03:00:00 TS -15.7350 93.9576 main 1576 1576 P___________P_ SH021990 -15.7350 93.9576 20 -1 -15.7350 93.9576 TC 20 6 302
1989194S06095 1990 60 SI WA NOT_NAMED 1989-07-17 06:00:00 TS -15.6000 93.7000 main 1594 1594 O___________O_ jtwc_sh SH021990 -15.6000 93.7000 20 -1 -15.6000 93.7000 TC 20 6 302
1989194S06095 1990 60 SI WA NOT_NAMED 1989-07-17 09:00:00 TS -15.4424 93.4650 main 1596 1596 P___________P_ SH021990 -15.4424 93.4650 17 -1 -15.4424 93.4650 TC 17 6 302
1989194S06095 1990 60 SI WA NOT_NAMED 1989-07-17 12:00:00 TS -15.3000 93.2000 main 1609 1608 O___________O_ jtwc_sh SH021990 -15.3000 93.2000 15 -1 -15.3000 93.2000 TC 15 6 294
1989194S06095 1990 60 SI WA NOT_NAMED 1989-07-17 15:00:00 TS -15.1850 92.8650 main 1622 1622 P___________P_ SH021990 -15.1850 92.8650 15 -1 -15.1850 92.8650 TC 15 7 286
1989194S06095 1990 60 SI WA NOT_NAMED 1989-07-17 18:00:00 TS -15.1000 92.5000 main 1642 1642 O___________O_ jtwc_sh SH021990 -15.1000 92.5000 15 -1 -15.1000 92.5000 TC 15 7 282
1989194S06095 1990 60 SI WA NOT_NAMED 1989-07-17 21:00:00 TS -15.0426 92.1450 main 1663 1663 P___________P_ SH021990 -15.0426 92.1450 15 -1 -15.0426 92.1450 TC 15 7 278
1989194S06095 1990 60 SI WA NOT_NAMED 1989-07-18 00:00:00 TS -15.0000 91.8000 main 1681 O___________O_ jtwc_sh SH021990 -15.0000 91.8000 15 -1 -15.0000 91.8000 TC 15 7 277

About IBTrACS Database

This database is a web-friendly format of International Best Track Archive for Climate Stewardship (IBTrACS), a global best track data archive curated by NOAA dating back to 1842.

Updated: 2021-11-26